createdAt,value
2023-01-22T00:03:12.123Z,101309.79
2023-01-22T00:08:13.590Z,101312.32
2023-01-22T00:13:15.113Z,101308.17
2023-01-22T00:18:17.792Z,101313.33
2023-01-22T00:23:20.358Z,101311.30
2023-01-22T00:28:21.828Z,101317.32
2023-01-22T00:33:23.319Z,101316.72
2023-01-22T00:38:24.811Z,101324.88
2023-01-22T00:43:26.417Z,101321.62
2023-01-22T00:48:28.347Z,101329.37
2023-01-22T00:53:29.863Z,101340.24
2023-01-22T00:58:31.399Z,101337.98
2023-01-22T01:03:35.123Z,101341.66
2023-01-22T01:08:39.421Z,101344.13
2023-01-22T01:13:43.176Z,101350.21
2023-01-22T01:18:45.243Z,101351.33
2023-01-22T01:23:46.985Z,101349.73
2023-01-22T01:28:49.353Z,101352.02
2023-01-22T01:33:50.838Z,101357.95
2023-01-22T01:38:52.920Z,101364.98
2023-01-22T01:44:06.447Z,101366.53
2023-01-22T01:49:16.193Z,101369.62
2023-01-22T01:54:18.108Z,101373.88
2023-01-22T01:59:21.711Z,101374.41
2023-01-22T02:04:24.063Z,101373.42
2023-01-22T02:09:27.202Z,101371.85
2023-01-22T02:14:33.281Z,101374.67
2023-01-22T02:19:35.210Z,101376.52
2023-01-22T02:24:36.753Z,101374.14
2023-01-22T02:29:38.756Z,101376.03
2023-01-22T02:34:40.689Z,101375.27
2023-01-22T02:39:42.189Z,101381.56
2023-01-22T02:44:43.791Z,101387.01
2023-01-22T02:49:45.308Z,101392.46
2023-01-22T02:54:46.815Z,101396.42
2023-01-22T02:59:48.347Z,101400.19
2023-01-22T03:04:50.322Z,101404.73
2023-01-22T03:09:51.929Z,101407.41
2023-01-22T03:15:11.975Z,101409.46
2023-01-22T03:20:31.947Z,101406.84
2023-01-22T03:25:33.431Z,101411.70
2023-01-22T03:30:34.946Z,101414.94
2023-01-22T03:35:36.455Z,101427.46
2023-01-22T03:40:38.080Z,101426.42
2023-01-22T03:45:39.624Z,101436.04
2023-01-22T03:50:41.230Z,101444.13
2023-01-22T03:55:42.740Z,101445.22
2023-01-22T04:00:44.210Z,101449.05
2023-01-22T04:05:45.693Z,101458.70
2023-01-22T04:10:47.306Z,101460.48
2023-01-22T04:15:48.811Z,101458.37
2023-01-22T04:20:51.796Z,101465.67
2023-01-22T04:25:54.195Z,101464.71
2023-01-22T04:30:56.416Z,101474.26
2023-01-22T04:35:58.056Z,101479.25
2023-01-22T04:40:59.590Z,101479.85
2023-01-22T04:46:01.260Z,101480.79
2023-01-22T04:51:02.859Z,101483.80
2023-01-22T04:56:05.127Z,101484.73
2023-01-22T05:01:06.649Z,101488.15
2023-01-22T05:06:08.496Z,101492.89
2023-01-22T05:11:09.969Z,101494.63
2023-01-22T05:16:11.535Z,101499.45
2023-01-22T05:21:13.036Z,101498.55
2023-01-22T05:26:14.580Z,101509.86
2023-01-22T05:31:16.172Z,101520.82
2023-01-22T05:36:17.827Z,101524.80
2023-01-22T05:41:19.508Z,101528.49
2023-01-22T05:46:21.048Z,101530.94
2023-01-22T05:51:22.822Z,101540.00
2023-01-22T05:56:24.442Z,101538.59
2023-01-22T06:01:26.247Z,101539.34
2023-01-22T06:06:27.790Z,101542.58
2023-01-22T06:11:29.275Z,101547.21
2023-01-22T06:16:30.792Z,101549.56
2023-01-22T06:21:32.406Z,101549.27
2023-01-22T06:26:34.099Z,101552.45
2023-01-22T06:31:35.732Z,101557.98
2023-01-22T06:36:37.236Z,101574.20
2023-01-22T06:41:38.727Z,101577.40
2023-01-22T06:46:40.226Z,101586.00
2023-01-22T06:51:42.108Z,101591.48
2023-01-22T06:56:43.604Z,101591.68
2023-01-22T07:01:45.175Z,101590.52
2023-01-22T07:06:46.798Z,101597.64
2023-01-22T07:11:48.509Z,101604.34
2023-01-22T07:16:50.067Z,101616.24
2023-01-22T07:21:51.575Z,101619.29
2023-01-22T07:26:53.075Z,101624.45
2023-01-22T07:31:54.753Z,101629.97
2023-01-22T07:36:56.250Z,101638.31
2023-01-22T07:42:01.354Z,101635.13
2023-01-22T07:47:03.115Z,101639.93
2023-01-22T07:52:04.724Z,101642.85
2023-01-22T07:57:06.195Z,101644.16
2023-01-22T08:02:11.929Z,101647.89
2023-01-22T08:07:17.656Z,101660.58
2023-01-22T08:12:19.308Z,101666.15
2023-01-22T08:17:20.809Z,101676.64
2023-01-22T08:22:22.333Z,101681.52
2023-01-22T08:27:23.832Z,101691.17
2023-01-22T08:32:25.521Z,101696.69
2023-01-22T08:37:27.072Z,101698.08
2023-01-22T08:42:28.713Z,101704.09
2023-01-22T08:47:30.315Z,101706.83
2023-01-22T08:52:31.813Z,101708.19
2023-01-22T08:57:33.434Z,101710.21
2023-01-22T09:02:34.917Z,101713.71
2023-01-22T09:07:36.534Z,101719.56
2023-01-22T09:12:39.823Z,101728.06
2023-01-22T09:17:41.958Z,101732.89
2023-01-22T09:22:48.149Z,101732.49
2023-01-22T09:27:49.668Z,101731.45
2023-01-22T09:32:51.254Z,101731.95
2023-01-22T09:37:52.784Z,101732.47
2023-01-22T09:43:20.540Z,101735.70
2023-01-22T09:48:27.403Z,101732.95
2023-01-22T09:53:30.009Z,101734.34
2023-01-22T09:58:35.776Z,101737.33
2023-01-22T10:03:53.089Z,101738.14
2023-01-22T10:09:02.059Z,101733.77
2023-01-22T10:14:08.144Z,101732.02
2023-01-22T10:19:27.812Z,101737.63
2023-01-22T10:24:30.249Z,101734.32
2023-01-22T10:29:34.834Z,101732.12
2023-01-22T10:34:37.145Z,101729.23
2023-01-22T10:39:40.678Z,101725.30
2023-01-22T10:44:42.591Z,101726.48
2023-01-22T10:49:44.715Z,101721.09
2023-01-22T10:54:53.858Z,101723.28
2023-01-22T11:00:01.385Z,101725.84
2023-01-22T11:05:24.249Z,101724.62
2023-01-22T11:10:49.620Z,101719.89
2023-01-22T11:16:09.729Z,101719.86
2023-01-22T11:21:25.669Z,101717.95
2023-01-22T11:27:06.838Z,101712.11
2023-01-22T11:32:34.471Z,101708.79
2023-01-22T11:37:48.112Z,101709.95
2023-01-22T11:43:20.217Z,101710.63
2023-01-22T11:48:34.975Z,101706.98
2023-01-22T11:53:58.811Z,101708.21
2023-01-22T11:59:10.196Z,101705.42
2023-01-22T12:04:26.718Z,101705.18
2023-01-22T12:09:48.541Z,101704.98
2023-01-22T12:15:08.994Z,101706.20
2023-01-22T12:20:31.969Z,101706.70
2023-01-22T12:25:33.411Z,101713.70
2023-01-22T12:30:47.619Z,101721.11
2023-01-22T12:35:51.740Z,101718.58
2023-01-22T12:41:11.671Z,101721.38
2023-01-22T12:46:48.757Z,101719.13
2023-01-22T12:51:52.390Z,101716.58
2023-01-22T12:57:12.064Z,101709.59
2023-01-22T13:02:22.996Z,101704.80
2023-01-22T13:07:37.319Z,101713.17
2023-01-22T13:12:47.758Z,101702.23
2023-01-22T13:18:06.607Z,101713.98
2023-01-22T13:23:13.092Z,101720.02
2023-01-22T13:28:18.907Z,101730.06
2023-01-22T13:33:20.430Z,101735.40
2023-01-22T13:38:29.204Z,101734.20
2023-01-22T13:43:31.136Z,101747.39
2023-01-22T13:48:32.951Z,101756.16
2023-01-22T13:53:48.883Z,101752.52
2023-01-22T13:58:52.366Z,101764.41
2023-01-22T14:04:02.162Z,101766.88
2023-01-22T14:09:03.926Z,101778.27
2023-01-22T14:14:16.017Z,101782.50
2023-01-22T14:19:17.874Z,101785.04
2023-01-22T14:24:19.389Z,101783.00
2023-01-22T14:29:20.909Z,101782.02
2023-01-22T14:34:22.826Z,101787.64
2023-01-22T14:39:24.464Z,101788.91
2023-01-22T14:44:26.083Z,101796.19
2023-01-22T14:49:27.625Z,101800.91
2023-01-22T14:54:29.110Z,101805.94
2023-01-22T14:59:31.043Z,101809.92
2023-01-22T15:04:32.671Z,101810.84
2023-01-22T15:09:34.256Z,101815.55
2023-01-22T15:14:35.821Z,101820.53
2023-01-22T15:19:41.489Z,101822.94
2023-01-22T15:24:43.921Z,101818.38
2023-01-22T15:29:46.237Z,101823.79
2023-01-22T15:34:47.718Z,101826.14
2023-01-22T15:39:49.634Z,101836.64
2023-01-22T15:44:51.121Z,101839.94
2023-01-22T15:49:52.620Z,101839.20
2023-01-22T15:54:54.324Z,101839.91
2023-01-22T15:59:55.844Z,101847.77
2023-01-22T16:04:57.360Z,101851.50
2023-01-22T16:09:59.031Z,101856.09
2023-01-22T16:15:00.575Z,101869.36
2023-01-22T16:20:02.142Z,101867.69
2023-01-22T16:25:03.981Z,101874.35
2023-01-22T16:30:07.504Z,101884.80
2023-01-22T16:35:10.743Z,101881.48
2023-01-22T16:40:13.484Z,101884.73
2023-01-22T16:45:14.982Z,101887.26
2023-01-22T16:50:17.582Z,101893.73
2023-01-22T16:55:19.413Z,101895.70
2023-01-22T17:00:21.243Z,101902.14
2023-01-22T17:05:22.984Z,101909.39
2023-01-22T17:10:24.722Z,101909.63
2023-01-22T17:15:26.252Z,101913.95
2023-01-22T17:20:28.012Z,101921.12
2023-01-22T17:25:30.040Z,101925.85
2023-01-22T17:30:31.537Z,101931.73
2023-01-22T17:35:33.193Z,101936.24
2023-01-22T17:40:37.541Z,101936.85
2023-01-22T17:45:40.056Z,101935.91
2023-01-22T17:50:41.579Z,101934.40
2023-01-22T17:55:43.049Z,101940.27
2023-01-22T18:00:45.316Z,101941.88
2023-01-22T18:05:47.519Z,101948.25
2023-01-22T18:10:49.029Z,101954.29
2023-01-22T18:15:51.852Z,101953.83
2023-01-22T18:20:53.536Z,101950.78
2023-01-22T18:25:58.039Z,101949.71
2023-01-22T18:31:10.425Z,101953.15
2023-01-22T18:36:14.815Z,101950.54
2023-01-22T18:41:23.899Z,101951.56
2023-01-22T18:46:33.152Z,101947.45
2023-01-22T18:51:34.880Z,101950.23
2023-01-22T18:56:37.492Z,101954.30
2023-01-22T19:01:40.811Z,101961.73
2023-01-22T19:06:44.196Z,101965.25
2023-01-22T19:11:48.044Z,101963.73
2023-01-22T19:16:53.220Z,101968.73
2023-01-22T19:21:55.860Z,101981.20
2023-01-22T19:26:58.083Z,101987.08
2023-01-22T19:31:59.738Z,101982.44
2023-01-22T19:37:02.551Z,101984.41
2023-01-22T19:42:06.929Z,101986.72
2023-01-22T19:47:11.258Z,101986.64
2023-01-22T19:52:13.526Z,101986.17
2023-01-22T19:57:15.806Z,101984.02
2023-01-22T20:02:20.756Z,101988.71
2023-01-22T20:07:22.684Z,101991.83
2023-01-22T20:12:24.205Z,101994.45
2023-01-22T20:17:25.825Z,102000.55
2023-01-22T20:22:27.578Z,101995.05
2023-01-22T20:27:29.285Z,101996.48
2023-01-22T20:32:30.931Z,102006.17
2023-01-22T20:37:33.358Z,102008.34
2023-01-22T20:42:34.881Z,102015.44
2023-01-22T20:47:36.912Z,102019.98
2023-01-22T20:52:38.480Z,102027.92
2023-01-22T20:57:40.024Z,102029.95
2023-01-22T21:02:41.551Z,102032.95
2023-01-22T21:07:43.033Z,102035.66
2023-01-22T21:12:46.825Z,102037.11
2023-01-22T21:17:48.485Z,102038.98
2023-01-22T21:22:50.364Z,102043.43
2023-01-22T21:27:51.941Z,102046.31
2023-01-22T21:32:53.487Z,102040.79
2023-01-22T21:37:55.095Z,102038.94
2023-01-22T21:43:15.063Z,102041.14
2023-01-22T21:48:16.655Z,102044.83
2023-01-22T21:53:18.142Z,102040.85
2023-01-22T21:58:20.707Z,102041.26
2023-01-22T22:03:22.249Z,102045.41
2023-01-22T22:08:23.854Z,102051.34
2023-01-22T22:13:25.388Z,102056.95
2023-01-22T22:18:27.557Z,102056.92
2023-01-22T22:23:29.112Z,102058.26
2023-01-22T22:28:31.424Z,102064.84
2023-01-22T22:33:33.031Z,102078.40
2023-01-22T22:38:35.045Z,102080.17
2023-01-22T22:43:45.154Z,102078.23
2023-01-22T22:48:47.226Z,102081.66
2023-01-22T22:53:51.894Z,102087.60
2023-01-22T22:58:53.873Z,102091.56
2023-01-22T23:03:55.485Z,102102.77
2023-01-22T23:08:59.023Z,102108.02
2023-01-22T23:14:02.563Z,102106.99
2023-01-22T23:19:07.408Z,102107.54
2023-01-22T23:24:11.077Z,102105.94
2023-01-22T23:29:15.576Z,102106.34
2023-01-22T23:34:21.110Z,102110.54
2023-01-22T23:39:23.169Z,102113.05
2023-01-22T23:44:24.968Z,102111.81
2023-01-22T23:49:26.457Z,102112.91
2023-01-22T23:54:28.302Z,102118.69
2023-01-22T23:59:29.799Z,102119.10
